createdAt,value
2023-05-09T00:08:28.592Z,1016.69
2023-05-09T00:18:28.803Z,1016.62
2023-05-09T00:28:28.977Z,1016.59
2023-05-09T00:38:29.167Z,1016.52
2023-05-09T00:48:29.341Z,1016.34
2023-05-09T00:58:29.507Z,1016.19
2023-05-09T01:08:29.689Z,1016.21
2023-05-09T01:18:29.866Z,1016.10
2023-05-09T01:28:30.161Z,1016.14
2023-05-09T01:38:30.136Z,1016.10
2023-05-09T01:48:30.303Z,1016.12
2023-05-09T01:58:30.477Z,1016.01
2023-05-09T02:08:30.642Z,1016.00
2023-05-09T02:18:30.813Z,1016.08
2023-05-09T02:28:30.988Z,1016.09
2023-05-09T02:38:31.160Z,1016.08
2023-05-09T02:48:31.286Z,1015.93
2023-05-09T02:58:31.478Z,1015.93
2023-05-09T03:08:31.657Z,1015.83
2023-05-09T03:18:31.831Z,1015.79
2023-05-09T03:28:32.009Z,1015.65
2023-05-09T03:38:32.222Z,1015.71
2023-05-09T03:48:32.367Z,1015.70
2023-05-09T03:58:32.520Z,1015.59
2023-05-09T04:08:32.685Z,1015.78
2023-05-09T04:18:32.831Z,1015.50
2023-05-09T04:28:33.008Z,1015.47
2023-05-09T04:38:33.176Z,1015.48
2023-05-09T04:48:33.348Z,1015.50
2023-05-09T04:58:33.506Z,1015.45
2023-05-09T05:08:33.674Z,1015.48
2023-05-09T05:18:33.861Z,1015.46
2023-05-09T05:28:34.001Z,1015.34
2023-05-09T05:38:34.156Z,1015.32
2023-05-09T05:48:34.345Z,1015.46
2023-05-09T05:58:34.495Z,1015.59
2023-05-09T06:08:34.669Z,1015.55
2023-05-09T06:18:34.834Z,1015.33
2023-05-09T06:28:35.000Z,1015.13
2023-05-09T06:38:35.158Z,1015.01
2023-05-09T06:48:35.313Z,1014.90
2023-05-09T06:58:35.458Z,1014.93
2023-05-09T07:08:35.626Z,1014.83
2023-05-09T07:18:35.812Z,1014.69
2023-05-09T07:28:35.948Z,1014.53
2023-05-09T07:38:36.107Z,1014.50
2023-05-09T07:48:36.336Z,1014.24
2023-05-09T07:58:36.428Z,1014.12
2023-05-09T08:08:38.826Z,1013.91
2023-05-09T08:18:36.689Z,1013.88
2023-05-09T08:28:36.910Z,1013.72
2023-05-09T08:38:37.013Z,1013.62
2023-05-09T08:48:37.174Z,1013.46
2023-05-09T08:58:37.326Z,1013.24
2023-05-09T09:08:37.504Z,1013.11
2023-05-09T09:18:39.660Z,1012.89
2023-05-09T09:28:37.950Z,1012.76
2023-05-09T09:38:38.082Z,1012.60
2023-05-09T09:48:38.246Z,1012.42
2023-05-09T09:58:38.420Z,1012.15
2023-05-09T10:08:38.598Z,1011.98
2023-05-09T10:18:38.804Z,1011.78
2023-05-09T10:28:38.865Z,1011.55
2023-05-09T10:38:39.005Z,1011.38
2023-05-09T10:48:39.176Z,1011.18
2023-05-09T10:58:39.338Z,1010.90
2023-05-09T11:08:39.515Z,1010.67
2023-05-09T11:18:39.744Z,1010.43
2023-05-09T11:28:39.960Z,1010.28
2023-05-09T11:38:40.134Z,1010.10
2023-05-09T11:48:40.295Z,1009.83
2023-05-09T11:58:40.445Z,1009.65
2023-05-09T12:08:40.607Z,1009.46
2023-05-09T12:18:40.768Z,1009.28
2023-05-09T12:28:40.937Z,1009.16
2023-05-09T12:38:41.106Z,1009.02
2023-05-09T12:48:41.284Z,1008.86
2023-05-09T12:58:41.446Z,1008.85
2023-05-09T13:08:41.618Z,1008.64
2023-05-09T13:18:41.790Z,1008.61
2023-05-09T13:28:42.030Z,1008.47
2023-05-09T13:38:42.176Z,1008.30
2023-05-09T13:48:42.358Z,1008.21
2023-05-09T13:58:42.521Z,1008.16
2023-05-09T14:08:42.684Z,1008.03
2023-05-09T14:18:42.858Z,1007.89
2023-05-09T14:28:43.019Z,1007.71
2023-05-09T14:38:43.192Z,1007.59
2023-05-09T14:48:43.403Z,1007.50
2023-05-09T14:58:43.564Z,1007.45
2023-05-09T15:08:43.744Z,1007.39
2023-05-09T15:18:43.895Z,1007.31
2023-05-09T15:28:44.059Z,1007.31
2023-05-09T15:38:44.236Z,1007.24
2023-05-09T15:48:44.419Z,1007.20
2023-05-09T15:58:44.593Z,1007.12
2023-05-09T16:08:44.766Z,1007.17
2023-05-09T16:18:44.937Z,1007.14
2023-05-09T16:28:45.087Z,1007.12
2023-05-09T16:38:45.242Z,1007.13
2023-05-09T16:48:45.408Z,1007.29
2023-05-09T16:58:45.565Z,1007.60
2023-05-09T17:08:45.724Z,1007.89
2023-05-09T17:18:46.183Z,1008.21
2023-05-09T17:28:46.489Z,1008.31
2023-05-09T17:38:46.769Z,1008.11
2023-05-09T17:48:46.812Z,1008.18
2023-05-09T17:58:47.036Z,1008.27
2023-05-09T18:08:47.285Z,1008.47
2023-05-09T18:18:47.575Z,1008.68
2023-05-09T18:28:47.625Z,1008.92
2023-05-09T18:38:47.879Z,1009.00
2023-05-09T18:48:48.183Z,1009.02
2023-05-09T18:58:48.257Z,1009.05
2023-05-09T19:08:48.376Z,1009.05
2023-05-09T19:18:48.420Z,1009.06
2023-05-09T19:28:48.689Z,1009.16
2023-05-09T19:38:48.755Z,1009.13
2023-05-09T19:48:48.891Z,1009.31
2023-05-09T19:58:49.042Z,1009.31
2023-05-09T20:08:49.085Z,1009.34
2023-05-09T20:18:51.984Z,1009.26
2023-05-09T20:28:49.427Z,1009.25
2023-05-09T20:38:49.511Z,1009.21
2023-05-09T20:48:49.460Z,1009.09
2023-05-09T20:58:49.355Z,1009.15
2023-05-09T21:08:49.578Z,1009.26
2023-05-09T21:18:49.786Z,1009.25
2023-05-09T21:28:49.936Z,1009.19
2023-05-09T21:38:50.098Z,1009.22
2023-05-09T21:48:50.336Z,1009.29
2023-05-09T21:58:50.411Z,1009.25
2023-05-09T22:08:50.558Z,1009.27
2023-05-09T22:18:50.725Z,1009.27
2023-05-09T22:28:50.913Z,1009.29
2023-05-09T22:38:51.075Z,1009.36
2023-05-09T22:48:51.276Z,1009.40
2023-05-09T22:58:51.429Z,1009.39
2023-05-09T23:08:51.591Z,1009.40
2023-05-09T23:18:51.766Z,1009.31
2023-05-09T23:28:51.931Z,1009.30
2023-05-09T23:38:52.101Z,1009.15
2023-05-09T23:48:52.280Z,1008.99
2023-05-09T23:58:52.455Z,1009.01
